Miami, Florida
Traffic Map
Current Weather Conditions
Miami, Florida
Overcast Light Rain
Overcast
24°
Feels Like: 24°
Wind Chill: 24° Ceiling: 900
Heat Index: 24° Visibility: 7mi
Dew Point: 23° Wind: 3mph
Humidity: 94% Direction: 110° (ESE)
Pressure: 29.89in Gusts: 0mph
Raw Report DataKMIA 230753Z 11003KT 7SM -RA BKN009 BKN021 OVC110 24/23 A2989 RMK AO2 SLP120 P0002 T02390228
Traffic Incident Summary
Active as of:
Severity:
Category:
InformationThere was an issue retrieving the traffic information for this location. Please try a different location or try again shortly.
Advertisements
Track Severe Weather on mobile